AirNav   Air Wisconsin pilot careers
 
 1034 users online  

KPYN Piedmont Municipal Airport
Piedmont, Missouri, USA

GOING TO PIEDMONT?


FAA INFORMATION EFFECTIVE 25 APRIL 2019

Location

FAA Identifier: PYN
Lat/Long: 37-07-34.1000N / 090-42-48.7000W
37-07.568333N / 090-42.811667W
37.1261389 / -90.7135278
(estimated)
Elevation: 467 ft. / 142 m (estimated)
Variation: 02E (1985)
From city: 2 miles SW of PIEDMONT, MO
Time zone: UTC -5 (UTC -6 during Standard Time)
Zip code: 63957

Airport Operations

Airport use: Open to the public
Activation date: 10/1975
Control tower: no
ARTCC: MEMPHIS CENTER
FSS: SAINT LOUIS FLIGHT SERVICE STATION
NOTAMs facility: STL (NOTAM-D service available)
Attendance: UNATNDD
Wind indicator: lighted
Segmented circle: no
Lights: MIRL RY 03/21 PRESET ON MED INTST & REIL RYS 03 & 21 OPER DUSK-0200; TO INCR INTST MIRL RY 03/21 ACTVT - CTAF. AFT 0200 ACTVT MIRL RY 03/21 & REIL RYS 03 & 21 - CTAF.
Beacon: white-green (lighted land airport)
ROTG BCN OTS INDEFLY. DUSK-DAWN. ROTG BCN OTS INDEFLY.

Airport Communications

CTAF/UNICOM: 122.8
WX AWOS-3: 118.475 (573-223-2796)
  • NOT MONITORED.

Airport Services

Fuel available: 100LL
Parking: tiedowns
Bottled oxygen: NONE
Bulk oxygen: NONE

Runway Information

Runway 3/21

Dimensions: 3300 x 60 ft. / 1006 x 18 m
Surface: asphalt, in good condition
Weight bearing capacity: 
Single wheel: 12.5
Runway edge lights: medium intensity
MIRL RY 03/21 OTS INDEFLY.
Gradient: NE
Operational restrictions: CLSD SS TO SR.
RUNWAY 3  RUNWAY 21
Latitude: 37-07.338333N37-07.798167N
Longitude: 090-42.993000W090-42.630667W
Elevation: 457.0 ft.465.9 ft.
Traffic pattern: rightleft
Markings: nonprecision, in fair conditionnonprecision, in fair condition
Runway end identifier lights: yesyes
Touchdown point: yes, no lightsyes, no lights
Obstructions: 98 ft. trees, 1420 ft. from runway, 250 ft. left and right of centerline, 12:1 slope to clear38 ft. trees, 808 ft. from runway, 60 ft. left of centerline, 16:1 slope to clear

Airport Ownership and Management from official FAA records

Ownership: Publicly-owned
Owner: CITY OF PIEDMONT
115 W. GREEN STREET, P.O. BOX 25
PIEDMONT, MO 63957
Phone 573-223-7660
Manager: BILL MCMURRY
115 W GREEN ST BOX 25
PIEDMONT, MO 63957
Phone 573-223-4528

Airport Operational Statistics

Aircraft based on the field: 5
Single engine airplanes: 5
    
Aircraft operations: avg 26/week *
58% transient general aviation
36% local general aviation
4% air taxi
1% military
* for 12-month period ending 31 December 2017

Additional Remarks

LAST 35 FT OF TURNAROUND AT SE TWY NOT USBL; PILOTS OF LOW WING ACFT USE CARE.
BIRDS & WILDLIFE ON & INVOF ARPT.

Instrument Procedures

There are no published instrument procedures at KPYN.

Some nearby airports with instrument procedures:

KPOF - Poplar Bluff Municipal Airport (28 nm SE)
H88 - A Paul Vance Fredericktown Regional Airport (35 nm NE)
KFAM - Farmington Regional Airport (40 nm N)
KDXE - Dexter Municipal Airport (43 nm SE)
4M9 - Corning Municipal Airport (43 nm S)
 
Loc | Ops | Rwys | IFR | FBO | Links
Com | Nav | Svcs | Stats | Notes

Kansas City Aviation Department
 
Area around KPYN (Piedmont Municipal Airport)
 
Road maps at: MapQuest Bing Google
 
Aerial photo
WARNING: Photo may not be current or correct
Aerial photo of KPYN (Piedmont Municipal Airport)
Do you have a better or more recent aerial photo of Piedmont Municipal Airport that you would like to share? If so, please send us your photo.

 
Sectional chart

 
Airport distance calculator
Flying to Piedmont Municipal Airport? Find the distance to fly.

From to KPYN

Sunrise and sunset
Times for 21-May-2019
 Local
(UTC-5)
 Zulu
(UTC)
Morning civil twilight05:2110:21
Sunrise05:5110:51
Sunset20:0801:08
Evening civil twilight20:3701:37

Current date and time
Zulu (UTC)  22-May-2019 01:10:11
Local (UTC-5)  21-May-2019 20:10:11
 
METAR
KPOF 
29nm SE 
220055Z AUTO 28012G26KT 3SM -RA BR FEW018 BKN050 OVC100 18/17 A2973 RMK AO2 LTG DSNT W PRESRR P0000 T01780172
KFAM 
41nm N 
220056Z AUTO 21003KT 7SM VCTS RA OVC037 16/15 A2978 RMK AO2 WSHFT 2343 LTG DSNT SW AND W TSE13B51 SLP079 P0032 T01610150
K4M9 
43nm S 
220055Z AUTO 29007KT 18/18 A2973 RMK AO2 LTG DSNT N PWINO
KMAW 
47nm SE 
220055Z AUTO 16013KT 10SM CLR 28/18 A2969 RMK AO2 LTG DSNT NW
TAF
NOTAMs
Click for the latest NOTAMs
NOTAMs are issued by the DoD/FAA and will open in a separate window not controlled by AirNav.

 

 
 

FBO, Fuel Providers, and Aircraft Ground Support

  
 Business Name 
 
 Contact 
 
 Services / Description 
 
Fuel Prices
 
Comments
  
City of Piedmont (self-serve fuel) 573-223-4528
no information available

If you are affiliated with City of Piedmont (self-serve fuel) and would like to show here your services, contact info, web link, logo, and more, click here
100LL
SS $4.60 
 Updated 15-May-2019
 
   write
SS=Self service
Update Fuel Prices
 

Would you like to see your business listed on this page?

 If your business provides an interesting product or service to pilots, flight crews, aircraft, or users of the Piedmont Municipal Airport, you should consider listing it here.  To start the listing process, click on the button below
 
Add a business
 

Other Pages about Piedmont Municipal Airport

Update a link
 
Copyright © AirNav, LLC. All rights reserved. Privacy Policy  Contact